Time;durP1;ratioP1;P1;durP2;ratioP2;P2;SDS_P1;SDS_P2;PMS_P1;PMS_P2;Temp;Humidity;BMP_temperature;BMP_pressure;BME280_temperature;BME280_humidity;BME280_pressure;Samples;Min_cycle;Max_cycle;Signal;HPM_P1;HPM_P2
2021/04/13 00:00:34;;;;;;;11.30;10.10;;;2.60;99.90;;;;;;5035177;28;20222;-77
2021/04/13 00:03:07;;;;;;;10.53;9.47;;;2.60;99.90;;;;;;5034711;28;20185;-79
2021/04/13 00:05:46;;;;;;;11.07;9.93;;;2.60;99.90;;;;;;5017143;28;20212;-78
2021/04/13 00:08:17;;;;;;;10.37;9.33;;;2.60;99.90;;;;;;5034296;28;20172;-78
2021/04/13 00:11:05;;;;;;;10.50;9.43;;;2.70;99.90;;;;;;5035055;28;20241;-78
2021/04/13 00:13:32;;;;;;;10.17;9.17;;;2.60;99.90;;;;;;5032874;28;20533;-77
2021/04/13 00:16:16;;;;;;;13.97;10.33;;;2.50;99.90;;;;;;5033094;28;20182;-78
2021/04/13 00:18:45;;;;;;;10.97;9.87;;;2.40;99.90;;;;;;5032583;28;20246;-78
2021/04/13 00:21:22;;;;;;;11.37;10.27;;;2.50;99.90;;;;;;5033223;28;20208;-77
2021/04/13 00:23:49;;;;;;;10.33;9.43;;;2.50;99.90;;;;;;5030312;28;20191;-78
2021/04/13 00:26:24;;;;;;;10.93;9.33;;;2.50;99.90;;;;;;5015827;28;20643;-77
2021/04/13 00:28:52;;;;;;;10.40;9.40;;;2.50;99.90;;;;;;5014934;28;20207;-77
2021/04/13 00:31:44;;;;;;;10.63;9.63;;;2.50;99.90;;;;;;5032865;28;20559;-77
2021/04/13 00:34:13;;;;;;;10.63;9.53;;;2.50;99.90;;;;;;5030844;28;20175;-76
2021/04/13 00:36:39;;;;;;;10.97;9.87;;;2.50;99.90;;;;;;5032804;28;20553;-77
2021/04/13 00:39:28;;;;;;;12.27;9.80;;;2.50;99.90;;;;;;5032540;28;20256;-78
2021/04/13 00:42:00;;;;;;;10.40;9.37;;;2.50;99.90;;;;;;5032500;28;20194;-78
2021/04/13 00:44:27;;;;;;;13.00;10.57;;;2.40;99.90;;;;;;5029908;28;20221;-78
2021/04/13 00:46:53;;;;;;;9.73;8.83;;;2.50;99.90;;;;;;5032523;28;20180;-78
2021/04/13 00:49:22;;;;;;;11.30;10.10;;;2.40;99.90;;;;;;5032313;28;20722;-78
2021/04/13 00:51:56;;;;;;;10.53;9.53;;;2.30;99.90;;;;;;5033901;28;20231;-77
2021/04/13 00:54:32;;;;;;;10.90;9.80;;;2.30;99.90;;;;;;5033509;28;20233;-78
2021/04/13 00:57:03;;;;;;;11.20;10.10;;;2.30;99.90;;;;;;5032963;28;20667;-77
2021/04/13 00:59:30;;;;;;;10.57;9.47;;;2.30;99.90;;;;;;5032547;28;20218;-78
2021/04/13 01:02:01;;;;;;;10.63;9.53;;;2.30;99.90;;;;;;5033116;28;20205;-79
2021/04/13 01:04:34;;;;;;;11.23;10.13;;;2.30;99.90;;;;;;5032740;28;20216;-78
2021/04/13 01:07:07;;;;;;;12.07;10.77;;;2.30;99.90;;;;;;5032738;28;20179;-77
2021/04/13 01:09:32;;;;;;;11.27;9.77;;;2.20;99.90;;;;;;5032639;28;20278;-78
2021/04/13 01:12:15;;;;;;;11.87;10.17;;;2.20;99.90;;;;;;5032481;28;20274;-78
2021/04/13 01:14:41;;;;;;;11.83;9.77;;;2.20;99.90;;;;;;5033421;28;20558;-77
2021/04/13 01:17:09;;;;;;;12.87;10.57;;;2.10;99.90;;;;;;5034084;28;20183;-78
2021/04/13 01:19:57;;;;;;;12.17;10.97;;;2.00;99.90;;;;;;5033418;28;20211;-77
2021/04/13 01:22:45;;;;;;;11.33;10.07;;;2.00;99.90;;;;;;5032467;28;20199;-78
2021/04/13 01:25:19;;;;;;;13.20;9.53;;;2.00;99.90;;;;;;5032376;28;20200;-77
2021/04/13 01:27:57;;;;;;;9.63;8.63;;;1.80;99.90;;;;;;5032673;28;20178;-77
2021/04/13 01:30:49;;;;;;;14.57;10.83;;;1.80;99.90;;;;;;5032221;28;20574;-77
2021/04/13 01:33:21;;;;;;;10.87;9.77;;;1.90;99.90;;;;;;5031685;28;20229;-77
2021/04/13 01:35:52;;;;;;;11.20;10.10;;;1.80;99.90;;;;;;5018882;28;20204;-78
2021/04/13 01:38:27;;;;;;;11.60;10.43;;;1.80;99.90;;;;;;5014297;28;20194;-77
2021/04/13 01:41:08;;;;;;;13.87;10.70;;;1.80;99.90;;;;;;5032129;28;20191;-78
2021/04/13 01:43:39;;;;;;;12.07;10.80;;;1.90;99.90;;;;;;5031952;28;20239;-77
2021/04/13 01:46:07;;;;;;;11.53;10.43;;;1.90;99.90;;;;;;5031968;28;20185;-78
2021/04/13 01:48:34;;;;;;;11.80;10.60;;;1.80;99.90;;;;;;5031848;28;20213;-79
2021/04/13 01:51:05;;;;;;;11.10;9.90;;;2.00;99.90;;;;;;5032214;28;20525;-79
2021/04/13 01:53:37;;;;;;;10.40;9.40;;;2.00;99.90;;;;;;5014046;28;20191;-77
2021/04/13 01:56:08;;;;;;;11.67;9.20;;;2.00;99.90;;;;;;5031675;28;20207;-77
2021/04/13 01:58:54;;;;;;;11.33;9.73;;;1.90;99.90;;;;;;5031425;28;20572;-77
2021/04/13 02:01:28;;;;;;;11.00;9.90;;;1.90;99.90;;;;;;5031846;28;20234;-78
2021/04/13 02:04:02;;;;;;;11.30;10.17;;;1.80;99.90;;;;;;5031397;28;20182;-77
2021/04/13 02:06:51;;;;;;;10.57;9.57;;;1.80;99.90;;;;;;5031642;28;20189;-78
2021/04/13 02:09:34;;;;;;;11.30;10.20;;;1.90;99.90;;;;;;5031574;28;20199;-78
2021/04/13 02:12:23;;;;;;;11.57;10.37;;;1.80;99.90;;;;;;5031651;28;20181;-78
2021/04/13 02:15:09;;;;;;;11.73;9.77;;;1.80;99.90;;;;;;5018050;28;20223;-77
2021/04/13 02:17:47;;;;;;;10.87;9.77;;;1.80;99.90;;;;;;5017176;28;20215;-78
2021/04/13 02:20:18;;;;;;;11.50;10.40;;;1.80;99.90;;;;;;5029048;28;20691;-78
2021/04/13 02:22:45;;;;;;;10.37;9.33;;;1.70;99.90;;;;;;5030405;28;20186;-78
2021/04/13 02:25:15;;;;;;;10.37;9.37;;;1.70;99.90;;;;;;5031103;28;20258;-77
2021/04/13 02:27:43;;;;;;;11.20;9.97;;;1.70;99.90;;;;;;5032187;28;20672;-77
2021/04/13 02:30:16;;;;;;;10.80;9.70;;;1.70;99.90;;;;;;5031276;28;20209;-78
2021/04/13 02:32:47;;;;;;;11.93;10.30;;;1.60;99.90;;;;;;5031624;28;20183;-78
2021/04/13 02:35:25;;;;;;;11.30;10.20;;;1.70;99.90;;;;;;5031729;28;20187;-78
2021/04/13 02:38:00;;;;;;;13.07;10.90;;;1.70;99.90;;;;;;5031233;28;20189;-78
2021/04/13 02:40:34;;;;;;;13.13;11.80;;;1.70;99.90;;;;;;5030777;28;20264;-78
2021/04/13 02:43:11;;;;;;;12.30;11.07;;;1.70;99.90;;;;;;5030838;28;20177;-78
2021/04/13 02:45:49;;;;;;;13.33;11.27;;;1.70;99.90;;;;;;5028311;28;20225;-78
2021/04/13 02:48:26;;;;;;;11.40;10.20;;;1.80;99.90;;;;;;5030693;28;20185;-77
2021/04/13 02:50:56;;;;;;;11.17;10.07;;;1.80;99.90;;;;;;5030770;28;20183;-78
2021/04/13 02:53:30;;;;;;;12.40;10.93;;;1.60;99.90;;;;;;5031860;28;20257;-77
2021/04/13 02:55:57;;;;;;;12.43;11.13;;;1.40;99.90;;;;;;5031663;28;20198;-77
2021/04/13 02:58:30;;;;;;;11.43;10.33;;;1.50;99.90;;;;;;5030638;28;20265;-77
2021/04/13 03:00:59;;;;;;;11.70;10.50;;;1.40;99.90;;;;;;5012582;28;20207;-78
2021/04/13 03:03:33;;;;;;;11.10;10.00;;;1.40;99.90;;;;;;5016877;28;20184;-78
2021/04/13 03:06:00;;;;;;;11.13;10.03;;;1.40;99.90;;;;;;5012947;28;20674;-77
2021/04/13 03:08:28;;;;;;;11.47;10.37;;;1.40;99.90;;;;;;5030579;28;20549;-78
2021/04/13 03:10:58;;;;;;;11.60;10.47;;;1.40;99.90;;;;;;5030885;28;20674;-78
2021/04/13 03:13:34;;;;;;;11.90;10.70;;;1.40;99.90;;;;;;5034586;28;20273;-77
2021/04/13 03:16:00;;;;;;;11.50;10.33;;;1.30;99.90;;;;;;5034310;28;20186;-78
2021/04/13 03:18:34;;;;;;;11.47;10.27;;;1.40;99.90;;;;;;5034687;28;20184;-78
2021/04/13 03:21:06;;;;;;;12.70;11.33;;;1.40;99.90;;;;;;5034500;28;20208;-78
2021/04/13 03:23:34;;;;;;;10.67;9.57;;;1.30;99.90;;;;;;5034867;28;20584;-78
2021/04/13 03:26:12;;;;;;;14.60;10.60;;;1.40;99.90;;;;;;5034537;28;20645;-78
2021/04/13 03:28:45;;;;;;;11.63;10.53;;;1.40;99.90;;;;;;5034253;28;20196;-77
2021/04/13 03:31:13;;;;;;;11.60;10.50;;;1.40;99.90;;;;;;5034323;28;20182;-78
2021/04/13 03:33:41;;;;;;;12.20;11.00;;;1.40;99.90;;;;;;5034456;28;20221;-78
2021/04/13 03:36:19;;;;;;;12.83;11.53;;;1.40;99.90;;;;;;5034295;28;20664;-77
2021/04/13 03:38:48;;;;;;;11.83;10.73;;;1.40;99.90;;;;;;5034389;28;20627;-77
2021/04/13 03:41:16;;;;;;;11.53;10.33;;;1.30;99.90;;;;;;5034104;28;20656;-77
2021/04/13 03:43:43;;;;;;;11.40;10.20;;;1.40;99.90;;;;;;5033964;28;20268;-77
2021/04/13 03:46:10;;;;;;;11.43;10.13;;;1.30;99.90;;;;;;5034123;28;20183;-77
2021/04/13 03:48:38;;;;;;;12.10;10.77;;;1.30;99.90;;;;;;5033849;28;20213;-77
2021/04/13 03:51:26;;;;;;;12.70;10.40;;;1.20;99.90;;;;;;5034910;28;20178;-77
2021/04/13 03:53:52;;;;;;;11.23;10.13;;;1.20;99.90;;;;;;5031857;28;20191;-77
2021/04/13 03:56:21;;;;;;;11.43;10.07;;;1.10;99.90;;;;;;5033778;28;20179;-77
2021/04/13 03:58:50;;;;;;;16.27;12.00;;;1.20;99.90;;;;;;5033741;28;20579;-77
2021/04/13 04:01:20;;;;;;;11.80;10.23;;;1.20;99.90;;;;;;5027394;28;20207;-77
2021/04/13 04:04:19;;;;;;;12.33;11.10;;;1.20;99.90;;;;;;5022389;28;20262;-77
2021/04/13 04:06:53;;;;;;;11.87;10.67;;;1.10;99.90;;;;;;5014336;28;20184;-78
2021/04/13 04:09:41;;;;;;;11.53;9.83;;;1.20;99.90;;;;;;5014559;28;20310;-77
2021/04/13 04:12:20;;;;;;;13.80;11.20;;;1.20;99.90;;;;;;5032131;28;20201;-78
2021/04/13 04:15:06;;;;;;;13.37;10.13;;;1.10;99.90;;;;;;5033271;28;20186;-78
2021/04/13 04:17:34;;;;;;;11.07;10.07;;;1.10;99.90;;;;;;5033242;28;20652;-78
2021/04/13 04:20:10;;;;;;;12.57;11.33;;;1.20;99.90;;;;;;5033296;28;20215;-77
2021/04/13 04:22:51;;;;;;;11.40;10.30;;;1.20;99.90;;;;;;5033339;28;20179;-76
2021/04/13 04:25:36;;;;;;;12.93;10.83;;;1.10;99.90;;;;;;5012722;28;20179;-77
2021/04/13 04:28:18;;;;;;;14.27;11.87;;;1.00;99.90;;;;;;5031477;28;20178;-78
2021/04/13 04:30:52;;;;;;;11.43;10.20;;;1.00;99.90;;;;;;5012381;28;20271;-77
2021/04/13 04:33:38;;;;;;;11.20;10.10;;;1.00;99.90;;;;;;5027461;28;20175;-77
2021/04/13 04:36:39;;;;;;;14.00;10.73;;;1.00;99.90;;;;;;5033401;28;20851;-78
2021/04/13 04:39:33;;;;;;;12.13;10.83;;;1.00;99.90;;;;;;5015371;28;20205;-77
2021/04/13 04:42:07;;;;;;;12.00;10.30;;;1.00;99.90;;;;;;5033166;28;20608;-78
2021/04/13 04:44:33;;;;;;;11.80;10.20;;;1.00;99.90;;;;;;5033928;28;20517;-77
2021/04/13 04:47:00;;;;;;;12.70;11.40;;;0.90;99.90;;;;;;5033879;28;20237;-78
2021/04/13 04:49:45;;;;;;;13.40;10.87;;;0.90;99.90;;;;;;5031831;28;20218;-77
2021/04/13 04:52:11;;;;;;;12.77;10.97;;;0.90;99.90;;;;;;5031927;28;20689;-78
2021/04/13 04:54:36;;;;;;;14.07;11.37;;;0.90;99.90;;;;;;5034771;28;20179;-77
2021/04/13 04:57:04;;;;;;;14.23;10.50;;;0.90;99.90;;;;;;5018043;28;20187;-76
2021/04/13 04:59:29;;;;;;;14.90;11.40;;;0.80;99.90;;;;;;5016255;28;20261;-76
2021/04/13 05:01:55;;;;;;;13.10;11.13;;;0.80;99.90;;;;;;5030256;28;20198;-77
2021/04/13 05:04:21;;;;;;;17.90;10.43;;;0.90;99.90;;;;;;5013170;28;20298;-77
2021/04/13 05:06:47;;;;;;;11.33;9.90;;;0.80;99.90;;;;;;5030799;28;20233;-77
2021/04/13 05:09:12;;;;;;;12.17;10.87;;;0.70;99.90;;;;;;5032282;28;20194;-76
2021/04/13 05:11:38;;;;;;;11.93;10.70;;;0.60;99.90;;;;;;5033481;28;20192;-75
2021/04/13 05:14:04;;;;;;;12.13;10.93;;;0.60;99.90;;;;;;5033909;28;20217;-76
2021/04/13 05:16:30;;;;;;;11.87;10.73;;;0.70;99.90;;;;;;5033847;28;20631;-77
2021/04/13 05:18:55;;;;;;;11.87;10.70;;;0.70;99.90;;;;;;5034556;28;20195;-77
2021/04/13 05:21:22;;;;;;;12.47;11.10;;;0.80;99.90;;;;;;5025704;28;20853;-77
2021/04/13 05:23:48;;;;;;;12.03;10.83;;;0.80;99.90;;;;;;5032841;28;20171;-76
2021/04/13 05:26:14;;;;;;;15.63;11.37;;;0.90;99.90;;;;;;5034475;28;20174;-76
2021/04/13 05:28:40;;;;;;;14.37;10.97;;;0.90;99.90;;;;;;5034363;28;20668;-77
2021/04/13 05:31:07;;;;;;;11.40;10.30;;;0.90;99.90;;;;;;5034491;28;20183;-78
2021/04/13 05:33:33;;;;;;;14.73;11.17;;;1.00;99.90;;;;;;5015702;28;20595;-77
2021/04/13 05:36:02;;;;;;;12.97;11.50;;;1.00;99.90;;;;;;5016070;28;20180;-77
2021/04/13 05:38:34;;;;;;;12.40;11.20;;;1.00;99.90;;;;;;5032426;28;20183;-77
2021/04/13 05:41:02;;;;;;;12.37;11.27;;;1.10;99.90;;;;;;5014290;28;20194;-76
2021/04/13 05:43:28;;;;;;;11.97;10.77;;;1.10;99.90;;;;;;5034262;28;20225;-77
2021/04/13 05:45:59;;;;;;;12.50;10.80;;;1.20;99.90;;;;;;5034234;28;20178;-76
2021/04/13 05:48:26;;;;;;;13.10;11.10;;;1.10;99.90;;;;;;5030789;28;20579;-76
2021/04/13 05:50:52;;;;;;;12.97;10.47;;;1.10;99.90;;;;;;5033861;28;20197;-76
2021/04/13 05:53:18;;;;;;;12.17;11.00;;;1.20;99.90;;;;;;5036857;28;20194;-77
2021/04/13 05:55:44;;;;;;;13.03;11.73;;;1.20;99.90;;;;;;5038933;28;20187;-77
2021/04/13 05:58:13;;;;;;;13.30;12.10;;;1.30;99.90;;;;;;5035340;28;20171;-76
2021/04/13 06:00:39;;;;;;;12.10;11.00;;;1.40;99.90;;;;;;5032953;28;20203;-76
2021/04/13 06:03:06;;;;;;;13.60;10.87;;;1.30;99.90;;;;;;5033574;28;20185;-76
2021/04/13 06:05:32;;;;;;;11.93;10.73;;;1.30;99.90;;;;;;5030309;28;20672;-77
2021/04/13 06:07:58;;;;;;;12.57;11.37;;;1.40;99.90;;;;;;5032107;28;20168;-76
2021/04/13 06:10:25;;;;;;;12.37;11.30;;;1.50;99.90;;;;;;5032948;28;20242;-76
2021/04/13 06:12:54;;;;;;;11.33;10.30;;;1.60;99.90;;;;;;5033443;28;20201;-76
2021/04/13 06:15:23;;;;;;;12.63;11.37;;;1.70;99.90;;;;;;5030205;28;20178;-76
2021/04/13 06:17:49;;;;;;;12.63;11.30;;;1.60;99.90;;;;;;5032438;28;20261;-75
2021/04/13 06:20:16;;;;;;;12.30;11.10;;;1.60;99.90;;;;;;5033241;28;20277;-76
2021/04/13 06:22:43;;;;;;;13.50;11.43;;;1.70;99.90;;;;;;5033791;28;20178;-76
2021/04/13 06:25:11;;;;;;;11.60;10.47;;;1.80;99.90;;;;;;5021546;28;20186;-76
2021/04/13 06:27:37;;;;;;;13.03;11.73;;;1.90;99.90;;;;;;5033544;28;20167;-76
2021/04/13 06:30:05;;;;;;;12.53;11.33;;;1.90;99.90;;;;;;5030950;28;20203;-77
2021/04/13 06:32:31;;;;;;;12.53;11.20;;;2.00;99.90;;;;;;5031451;28;20532;-77
2021/04/13 06:34:57;;;;;;;11.63;10.53;;;2.00;99.90;;;;;;5019809;28;20186;-75
2021/04/13 06:37:23;;;;;;;11.27;10.07;;;2.10;99.90;;;;;;5032788;28;20189;-76
2021/04/13 06:39:49;;;;;;;11.27;10.07;;;2.20;99.90;;;;;;5033326;28;20202;-76
2021/04/13 06:42:35;;;;;;;11.37;10.37;;;2.10;99.90;;;;;;5033467;28;20192;-76
2021/04/13 06:45:17;;;;;;;14.37;12.90;;;2.10;99.90;;;;;;5015480;28;20178;-76
2021/04/13 06:48:00;;;;;;;14.10;11.93;;;2.20;99.90;;;;;;5033408;28;20222;-76
2021/04/13 06:50:29;;;;;;;15.17;13.50;;;2.30;99.90;;;;;;5015349;28;20279;-77
2021/04/13 06:53:17;;;;;;;14.60;13.03;;;2.40;99.90;;;;;;5033376;28;20168;-76
2021/04/13 06:55:54;;;;;;;16.90;13.63;;;2.40;99.90;;;;;;5033599;28;20171;-75
2021/04/13 06:58:45;;;;;;;15.80;13.83;;;2.40;99.90;;;;;;5033396;28;20178;-75
2021/04/13 07:01:37;;;;;;;19.90;15.47;;;2.50;99.90;;;;;;5015313;28;20582;-76
2021/04/13 07:04:10;;;;;;;16.27;14.57;;;2.60;99.90;;;;;;5032693;28;20655;-76
2021/04/13 07:06:59;;;;;;;22.20;16.23;;;2.60;99.90;;;;;;5015290;28;20661;-76
2021/04/13 07:09:56;;;;;;;26.50;16.70;;;2.70;99.90;;;;;;5032476;28;20213;-75
2021/04/13 07:12:40;;;;;;;19.73;16.63;;;2.90;99.90;;;;;;5022723;28;20183;-76
2021/04/13 07:15:14;;;;;;;23.30;14.90;;;3.10;99.90;;;;;;5014898;28;20179;-76
2021/04/13 07:18:02;;;;;;;22.80;15.83;;;3.20;99.90;;;;;;5032889;28;20231;-75
2021/04/13 07:20:36;;;;;;;20.40;16.10;;;3.10;99.90;;;;;;5019049;28;20715;-75
2021/04/13 07:23:08;;;;;;;24.07;16.80;;;3.00;99.90;;;;;;5033051;28;20251;-76
2021/04/13 07:25:48;;;;;;;25.63;19.03;;;3.10;99.90;;;;;;5017653;28;20220;-77
2021/04/13 07:28:20;;;;;;;17.60;14.27;;;3.20;99.90;;;;;;5032104;28;20188;-78
2021/04/13 07:30:48;;;;;;;19.40;16.70;;;3.40;99.90;;;;;;5032247;28;20188;-76
2021/04/13 07:33:21;;;;;;;24.07;16.97;;;3.30;99.90;;;;;;5032144;28;20734;-76
2021/04/13 07:35:47;;;;;;;24.90;17.87;;;3.30;99.90;;;;;;5033809;28;20171;-77
2021/04/13 07:38:22;;;;;;;23.23;17.70;;;3.30;99.90;;;;;;5033045;28;20647;-77
2021/04/13 07:40:52;;;;;;;18.57;15.90;;;3.30;99.90;;;;;;5031726;28;20200;-77
2021/04/13 07:43:28;;;;;;;18.77;16.10;;;3.40;99.90;;;;;;5031291;28;20193;-77
2021/04/13 07:46:21;;;;;;;20.57;16.57;;;3.40;99.90;;;;;;5032397;28;20246;-78
2021/04/13 07:49:15;;;;;;;23.63;16.93;;;3.50;99.90;;;;;;5032199;28;20218;-77
2021/04/13 07:51:56;;;;;;;22.03;16.67;;;3.60;99.90;;;;;;5027717;28;20184;-77
2021/04/13 07:54:53;;;;;;;18.63;15.73;;;3.80;99.90;;;;;;5038672;28;20194;-77
2021/04/13 07:57:43;;;;;;;19.10;16.53;;;3.80;99.90;;;;;;5037419;28;20575;-77
2021/04/13 08:00:31;;;;;;;21.17;16.57;;;3.80;99.90;;;;;;5017938;28;20253;-78
2021/04/13 08:03:26;;;;;;;23.20;17.83;;;3.90;99.90;;;;;;5018138;28;20767;-77
2021/04/13 08:05:56;;;;;;;21.40;16.77;;;3.90;99.90;;;;;;5019914;28;20218;-77
2021/04/13 08:08:30;;;;;;;18.40;15.97;;;3.90;99.90;;;;;;5017880;28;20183;-78
2021/04/13 08:11:14;;;;;;;17.30;14.37;;;4.10;99.90;;;;;;5035947;28;20179;-77
2021/04/13 08:13:43;;;;;;;15.47;13.87;;;4.30;99.90;;;;;;5016604;28;20181;-78
2021/04/13 08:16:28;;;;;;;16.67;13.70;;;4.20;99.90;;;;;;5036030;28;20557;-77
2021/04/13 08:19:26;;;;;;;15.03;13.47;;;4.30;99.90;;;;;;5035213;28;20275;-77
2021/04/13 08:22:07;;;;;;;20.40;14.83;;;4.20;99.90;;;;;;5017893;28;20192;-77
2021/04/13 08:24:54;;;;;;;17.53;14.53;;;4.30;99.90;;;;;;5035757;28;20655;-76
2021/04/13 08:27:26;;;;;;;15.23;13.63;;;4.30;99.90;;;;;;5016752;28;20180;-75
2021/04/13 08:30:29;;;;;;;13.60;12.17;;;4.20;99.90;;;;;;5034427;28;20233;-76
2021/04/13 08:33:35;;;;;;;12.67;11.47;;;4.30;99.90;;;;;;5035601;28;20197;-75
2021/04/13 08:36:29;;;;;;;13.73;12.20;;;4.40;99.90;;;;;;5017823;28;20590;-75
2021/04/13 08:39:37;;;;;;;14.03;12.53;;;4.50;99.90;;;;;;5034796;28;20216;-75
2021/04/13 08:42:08;;;;;;;15.57;13.00;;;4.80;99.90;;;;;;5027953;28;20681;-77
2021/04/13 08:44:59;;;;;;;14.10;12.70;;;4.70;99.90;;;;;;5016919;28;20220;-77
2021/04/13 08:47:38;;;;;;;14.93;13.20;;;4.70;99.90;;;;;;5027773;28;20188;-76
2021/04/13 08:50:24;;;;;;;16.00;13.13;;;4.90;99.90;;;;;;5015483;28;20206;-77
2021/04/13 08:53:02;;;;;;;16.43;14.73;;;5.10;99.90;;;;;;5035304;28;20585;-76
2021/04/13 08:55:36;;;;;;;19.43;13.37;;;5.20;99.90;;;;;;5034639;28;20181;-76
2021/04/13 08:58:05;;;;;;;16.03;13.47;;;5.20;99.90;;;;;;5034668;28;20196;-77
2021/04/13 09:00:44;;;;;;;18.80;13.43;;;5.20;99.90;;;;;;5034123;28;20202;-77
2021/04/13 09:03:13;;;;;;;17.63;14.23;;;5.20;99.90;;;;;;5035201;28;20177;-76
2021/04/13 09:05:41;;;;;;;14.53;13.13;;;5.10;99.90;;;;;;5042324;28;20180;-75
2021/04/13 09:08:31;;;;;;;14.33;12.60;;;5.30;99.90;;;;;;5034760;28;20184;-76
2021/04/13 09:11:18;;;;;;;13.13;11.47;;;5.10;99.90;;;;;;5029599;28;20201;-76
2021/04/13 09:14:11;;;;;;;13.57;11.67;;;5.20;99.90;;;;;;5035081;28;20178;-76
2021/04/13 09:16:42;;;;;;;15.70;12.67;;;5.20;99.90;;;;;;5034820;28;20702;-76
2021/04/13 09:19:22;;;;;;;13.57;12.27;;;5.20;99.90;;;;;;5033108;28;20217;-77
2021/04/13 09:21:50;;;;;;;16.37;12.33;;;5.20;99.90;;;;;;5032590;28;20643;-76
2021/04/13 09:24:35;;;;;;;14.20;12.70;;;5.30;99.90;;;;;;5015149;28;20657;-77
2021/04/13 09:27:21;;;;;;;16.97;13.00;;;5.20;99.90;;;;;;5032406;28;20194;-77
2021/04/13 09:29:55;;;;;;;12.90;11.57;;;5.30;99.90;;;;;;5019074;28;20226;-77
2021/04/13 09:32:26;;;;;;;25.70;11.37;;;5.40;99.90;;;;;;5030986;28;20261;-76
2021/04/13 09:35:29;;;;;;;202.60;20.13;;;5.40;99.90;;;;;;5033626;28;20209;-77
2021/04/13 09:38:27;;;;;;;63.63;14.47;;;5.30;99.90;;;;;;5020916;28;20207;-76
2021/04/13 09:41:14;;;;;;;28.80;12.77;;;5.30;99.90;;;;;;5032465;28;20287;-76
2021/04/13 09:43:55;;;;;;;13.47;11.17;;;5.40;99.90;;;;;;5033010;28;20236;-77
2021/04/13 09:46:49;;;;;;;13.93;11.53;;;5.40;99.90;;;;;;5015721;28;20592;-76
2021/04/13 09:49:53;;;;;;;14.13;11.80;;;5.40;99.90;;;;;;5033420;28;20691;-76
2021/04/13 09:52:42;;;;;;;12.93;11.63;;;5.50;99.90;;;;;;5033469;28;20189;-76
2021/04/13 09:55:26;;;;;;;12.37;11.17;;;5.60;99.90;;;;;;5034027;28;20177;-75
2021/04/13 09:58:18;;;;;;;61.53;13.93;;;5.60;99.90;;;;;;5026797;28;20268;-75
2021/04/13 10:00:55;;;;;;;19.87;11.63;;;5.60;99.90;;;;;;5010942;28;20271;-76
2021/04/13 10:03:49;;;;;;;10.13;9.13;;;5.70;99.90;;;;;;5014235;28;20269;-76
2021/04/13 10:06:15;;;;;;;10.57;8.00;;;5.80;99.90;;;;;;5032107;28;20184;-76
2021/04/13 10:08:47;;;;;;;8.13;7.43;;;6.00;99.90;;;;;;5033696;28;20191;-75
2021/04/13 10:11:38;;;;;;;7.47;6.87;;;5.80;99.90;;;;;;5029733;28;20277;-76
2021/04/13 10:14:31;;;;;;;7.27;6.57;;;5.60;99.90;;;;;;5022510;28;20187;-76
2021/04/13 10:17:29;;;;;;;8.73;7.83;;;5.60;99.90;;;;;;5031780;28;20261;-74
2021/04/13 10:20:23;;;;;;;8.17;7.47;;;5.60;99.90;;;;;;5032613;28;20663;-76
2021/04/13 10:23:11;;;;;;;8.20;7.50;;;5.60;99.90;;;;;;5015816;28;20183;-75
2021/04/13 10:26:01;;;;;;;8.57;7.77;;;5.30;99.90;;;;;;5032032;28;20209;-76
2021/04/13 10:29:00;;;;;;;8.87;7.97;;;5.20;99.90;;;;;;5010472;28;20183;-75
2021/04/13 10:31:30;;;;;;;8.43;7.23;;;5.10;99.90;;;;;;5014747;28;20276;-75
2021/04/13 10:34:31;;;;;;;8.27;7.57;;;5.30;99.90;;;;;;5033503;28;20181;-75
2021/04/13 10:37:18;;;;;;;8.67;7.87;;;5.40;99.90;;;;;;5022977;28;20264;-75
2021/04/13 10:40:05;;;;;;;8.20;6.50;;;5.50;99.90;;;;;;5014688;28;20228;-76
2021/04/13 10:42:55;;;;;;;7.47;6.67;;;5.70;99.90;;;;;;5029967;28;20198;-76
2021/04/13 10:46:04;;;;;;;7.13;6.53;;;5.80;99.90;;;;;;5032372;28;20640;-76
2021/04/13 10:48:55;;;;;;;7.50;6.80;;;5.90;99.90;;;;;;5032779;28;20193;-75
2021/04/13 10:51:42;;;;;;;7.20;5.87;;;6.00;99.90;;;;;;5032697;28;20195;-75
2021/04/13 10:54:39;;;;;;;6.20;5.60;;;5.80;99.90;;;;;;5014664;28;20183;-76
2021/04/13 10:57:42;;;;;;;8.40;5.73;;;5.90;99.90;;;;;;5007447;28;20182;-76
2021/04/13 11:00:37;;;;;;;6.33;5.67;;;5.90;99.90;;;;;;5021246;28;20224;-76
2021/04/13 11:03:41;;;;;;;5.30;4.90;;;5.80;99.90;;;;;;5007845;28;20241;-75
2021/04/13 11:06:35;;;;;;;6.17;5.27;;;5.80;99.90;;;;;;5022715;28;20189;-76
2021/04/13 11:09:20;;;;;;;7.43;6.23;;;5.70;99.90;;;;;;5020150;28;20328;-76
2021/04/13 11:12:11;;;;;;;7.20;6.30;;;5.60;99.90;;;;;;5005692;28;20622;-77
2021/04/13 11:14:44;;;;;;;7.63;7.03;;;5.40;99.90;;;;;;5023214;28;20617;-77
2021/04/13 11:17:19;;;;;;;8.93;7.47;;;5.40;99.90;;;;;;5011581;28;20193;-75
2021/04/13 11:20:23;;;;;;;7.30;6.60;;;5.30;99.90;;;;;;5017426;28;20203;-76
2021/04/13 11:23:08;;;;;;;7.33;6.27;;;5.20;99.90;;;;;;5028882;28;20287;-75
2021/04/13 11:26:11;;;;;;;8.00;7.17;;;5.10;99.90;;;;;;5032510;28;20654;-77
2021/04/13 11:29:06;;;;;;;7.17;6.57;;;5.00;99.90;;;;;;5032086;28;20196;-75
2021/04/13 11:32:03;;;;;;;7.40;6.80;;;4.90;99.90;;;;;;5013859;28;20205;-75
2021/04/13 11:34:47;;;;;;;7.90;7.20;;;4.90;99.90;;;;;;5036108;28;20196;-75
2021/04/13 11:37:40;;;;;;;9.73;7.53;;;4.90;99.90;;;;;;5036595;28;20184;-75
2021/04/13 11:40:37;;;;;;;9.07;8.07;;;5.00;99.90;;;;;;5036596;28;20354;-76
2021/04/13 11:43:04;;;;;;;8.70;7.63;;;5.10;99.90;;;;;;5003690;28;20195;-75
2021/04/13 11:45:51;;;;;;;8.43;7.60;;;5.30;99.90;;;;;;5018725;28;20185;-76
2021/04/13 11:48:26;;;;;;;8.40;7.70;;;5.30;99.90;;;;;;5034874;28;20230;-77
2021/04/13 11:50:55;;;;;;;10.27;8.13;;;5.40;99.90;;;;;;5035871;28;20195;-75
2021/04/13 11:53:29;;;;;;;9.20;7.83;;;5.50;99.90;;;;;;5029303;28;20184;-76
2021/04/13 11:55:56;;;;;;;8.07;7.37;;;5.60;99.90;;;;;;5001701;28;20184;-76
2021/04/13 11:58:33;;;;;;;8.20;7.50;;;5.70;99.90;;;;;;5017269;28;20178;-76
2021/04/13 12:01:13;;;;;;;6.93;6.33;;;5.80;99.90;;;;;;5036037;28;20291;-75
2021/04/13 12:04:04;;;;;;;8.07;7.33;;;5.80;99.90;;;;;;5036282;28;20204;-75
2021/04/13 12:06:56;;;;;;;7.00;6.50;;;5.80;99.90;;;;;;5036124;28;20181;-75
2021/04/13 12:09:49;;;;;;;6.47;5.87;;;5.90;99.90;;;;;;5031770;28;20209;-77
2021/04/13 12:12:30;;;;;;;6.67;6.07;;;6.00;99.90;;;;;;5024693;28;20239;-78
2021/04/13 12:15:19;;;;;;;6.93;5.23;;;6.20;99.90;;;;;;5025620;28;20233;-76
2021/04/13 12:17:47;;;;;;;6.37;5.77;;;6.10;99.90;;;;;;5002695;28;20597;-75
2021/04/13 12:20:20;;;;;;;6.20;5.60;;;5.90;99.90;;;;;;5025177;28;20198;-76
2021/04/13 12:22:46;;;;;;;5.60;5.10;;;6.00;99.90;;;;;;5021907;28;20198;-76
2021/04/13 12:25:34;;;;;;;5.53;5.13;;;6.20;99.90;;;;;;5024703;28;20171;-75
2021/04/13 12:28:18;;;;;;;3.80;3.50;;;6.30;99.90;;;;;;5024034;28;20186;-75
2021/04/13 12:30:44;;;;;;;3.87;3.57;;;6.50;99.90;;;;;;5026886;28;20178;-76
2021/04/13 12:33:31;;;;;;;4.20;3.90;;;6.50;99.90;;;;;;5023154;28;20266;-76
2021/04/13 12:36:02;;;;;;;4.13;3.83;;;6.60;99.90;;;;;;5018789;28;20179;-77
2021/04/13 12:38:51;;;;;;;4.57;4.17;;;6.80;99.90;;;;;;5023493;28;20175;-77
2021/04/13 12:41:25;;;;;;;4.87;4.33;;;7.10;99.90;;;;;;5026311;28;20206;-77
2021/04/13 12:43:52;;;;;;;4.33;4.03;;;7.10;99.90;;;;;;5013833;28;20238;-76
2021/04/13 12:46:23;;;;;;;4.60;4.20;;;7.10;99.90;;;;;;5029941;28;20183;-75
2021/04/13 12:48:50;;;;;;;5.37;4.60;;;7.00;99.90;;;;;;5021345;28;20273;-75
2021/04/13 12:51:23;;;;;;;4.43;4.10;;;7.30;99.90;;;;;;5027837;28;20184;-76
2021/04/13 12:54:06;;;;;;;4.30;4.00;;;7.50;99.90;;;;;;5028115;28;20245;-75
2021/04/13 12:56:32;;;;;;;4.43;4.03;;;7.70;99.90;;;;;;5028334;28;20206;-76
2021/04/13 12:59:27;;;;;;;4.47;4.07;;;7.70;99.90;;;;;;5010665;28;20711;-76
2021/04/13 13:01:54;;;;;;;4.73;4.33;;;7.40;99.90;;;;;;5012743;28;20226;-76
2021/04/13 13:04:23;;;;;;;5.77;4.67;;;7.20;99.90;;;;;;5026986;28;20262;-74
2021/04/13 13:06:58;;;;;;;5.10;4.70;;;7.20;99.90;;;;;;5031233;28;20591;-72
2021/04/13 13:09:42;;;;;;;3.40;3.20;;;7.20;99.90;;;;;;5024843;28;20285;-74
2021/04/13 13:12:21;;;;;;;3.60;3.40;;;7.10;99.90;;;;;;5026884;28;20190;-75
2021/04/13 13:14:59;;;;;;;3.30;3.00;;;7.00;99.90;;;;;;5014589;28;20186;-75
2021/04/13 13:17:32;;;;;;;3.67;3.33;;;7.00;99.90;;;;;;5014835;28;20178;-76
2021/04/13 13:19:58;;;;;;;5.17;3.63;;;6.90;99.90;;;;;;5034028;28;20256;-75
2021/04/13 13:22:29;;;;;;;3.30;3.10;;;6.80;99.90;;;;;;5035001;28;20209;-74
2021/04/13 13:25:10;;;;;;;3.87;3.37;;;6.80;99.90;;;;;;5034440;28;20174;-75
2021/04/13 13:27:36;;;;;;;3.83;3.53;;;6.90;99.90;;;;;;5034283;28;20170;-74
2021/04/13 13:30:08;;;;;;;4.03;3.60;;;7.00;99.90;;;;;;5034357;28;20688;-74
2021/04/13 13:32:35;;;;;;;3.43;3.13;;;7.20;99.90;;;;;;5031890;28;20174;-76
2021/04/13 13:35:05;;;;;;;3.73;3.43;;;7.30;99.90;;;;;;5028787;28;20210;-76